sensor_id;sensor_type;location;lat;lon;timestamp;pressure;altitude;pressure_sealevel;temperature;humidity
70072;BME280;57434;42.794;23.302;2022-10-19T00:01:16;96337.66;;;3.98;59.05
70072;BME280;57434;42.794;23.302;2022-10-19T00:03:45;96309.09;;;3.82;59.12
70072;BME280;57434;42.794;23.302;2022-10-19T00:06:19;96235.50;;;3.41;59.58
70072;BME280;57434;42.794;23.302;2022-10-19T00:08:47;96325.03;;;3.61;60.41
70072;BME280;57434;42.794;23.302;2022-10-19T00:11:14;96127.16;;;2.63;60.18
70072;BME280;57434;42.794;23.302;2022-10-19T00:13:41;96137.03;;;2.64;60.13
70072;BME280;57434;42.794;23.302;2022-10-19T00:16:11;96129.94;;;2.63;59.83
70072;BME280;57434;42.794;23.302;2022-10-19T00:18:39;96313.00;;;4.00;60.04
70072;BME280;57434;42.794;23.302;2022-10-19T00:21:08;96277.09;;;4.09;59.92
70072;BME280;57434;42.794;23.302;2022-10-19T00:23:36;96302.34;;;3.83;61.25
70072;BME280;57434;42.794;23.302;2022-10-19T00:26:03;96276.31;;;4.09;60.67
70072;BME280;57434;42.794;23.302;2022-10-19T00:28:30;96252.38;;;3.83;60.49
70072;BME280;57434;42.794;23.302;2022-10-19T00:31:04;96157.22;;;3.17;60.47
70072;BME280;57434;42.794;23.302;2022-10-19T00:33:32;96047.97;;;2.30;60.46
70072;BME280;57434;42.794;23.302;2022-10-19T00:36:00;96271.53;;;4.09;60.43
70072;BME280;57434;42.794;23.302;2022-10-19T00:38:27;96285.31;;;3.97;60.25
70072;BME280;57434;42.794;23.302;2022-10-19T00:40:54;96122.47;;;2.80;60.19
70072;BME280;57434;42.794;23.302;2022-10-19T00:43:23;96216.72;;;3.32;61.29
70072;BME280;57434;42.794;23.302;2022-10-19T00:45:51;96170.16;;;2.88;60.77
70072;BME280;57434;42.794;23.302;2022-10-19T00:48:24;96107.75;;;2.47;60.97
70072;BME280;57434;42.794;23.302;2022-10-19T00:50:53;95931.94;;;1.27;60.78
70072;BME280;57434;42.794;23.302;2022-10-19T00:53:22;96155.78;;;2.77;60.12
70072;BME280;57434;42.794;23.302;2022-10-19T00:55:52;96206.72;;;3.19;59.84
70072;BME280;57434;42.794;23.302;2022-10-19T00:58:19;96277.03;;;3.45;60.42
70072;BME280;57434;42.794;23.302;2022-10-19T01:00:46;95987.56;;;1.49;61.02
70072;BME280;57434;42.794;23.302;2022-10-19T01:03:13;96058.00;;;2.04;61.36
70072;BME280;57434;42.794;23.302;2022-10-19T01:05:41;96101.22;;;2.18;61.50
70072;BME280;57434;42.794;23.302;2022-10-19T01:08:08;96145.56;;;2.90;61.30
70072;BME280;57434;42.794;23.302;2022-10-19T01:10:53;96217.41;;;3.36;61.34
70072;BME280;57434;42.794;23.302;2022-10-19T01:13:38;96219.56;;;3.45;60.57
70072;BME280;57434;42.794;23.302;2022-10-19T01:24:53;96206.56;;;3.26;60.68
70072;BME280;57434;42.794;23.302;2022-10-19T01:31:12;96042.63;;;1.63;62.30
70072;BME280;57434;42.794;23.302;2022-10-19T01:34:27;96193.84;;;2.33;63.65
70072;BME280;57434;42.794;23.302;2022-10-19T01:36:28;96043.56;;;1.33;62.86
70072;BME280;57434;42.794;23.302;2022-10-19T01:39:37;96191.59;;;2.67;62.45
70072;BME280;57434;42.794;23.302;2022-10-19T01:43:01;96220.47;;;2.86;61.75
70072;BME280;57434;42.794;23.302;2022-10-19T01:45:07;96195.03;;;2.91;61.62
70072;BME280;57434;42.794;23.302;2022-10-19T01:47:52;96189.38;;;2.79;62.38
70072;BME280;57434;42.794;23.302;2022-10-19T01:50:32;96202.41;;;2.98;62.02
70072;BME280;57434;42.794;23.302;2022-10-19T01:53:04;96205.47;;;2.84;62.70
70072;BME280;57434;42.794;23.302;2022-10-19T01:55:33;96182.72;;;2.17;64.63
70072;BME280;57434;42.794;23.302;2022-10-19T01:58:06;96188.16;;;2.60;63.48
70072;BME280;57434;42.794;23.302;2022-10-19T02:00:38;96188.53;;;2.62;63.04
70072;BME280;57434;42.794;23.302;2022-10-19T02:03:09;96176.88;;;2.70;63.01
70072;BME280;57434;42.794;23.302;2022-10-19T02:05:38;95990.84;;;1.44;62.07
70072;BME280;57434;42.794;23.302;2022-10-19T02:08:17;96183.78;;;2.62;62.62
70072;BME280;57434;42.794;23.302;2022-10-19T02:10:46;96007.41;;;1.01;63.60
70072;BME280;57434;42.794;23.302;2022-10-19T02:13:15;95897.88;;;0.71;63.16
70072;BME280;57434;42.794;23.302;2022-10-19T02:15:46;96178.41;;;2.55;62.87
70072;BME280;57434;42.794;23.302;2022-10-19T02:18:18;96025.13;;;1.27;63.44
70072;BME280;57434;42.794;23.302;2022-10-19T02:20:48;95892.72;;;0.50;63.44
70072;BME280;57434;42.794;23.302;2022-10-19T02:23:16;96188.31;;;2.33;63.31
70072;BME280;57434;42.794;23.302;2022-10-19T02:25:44;95996.75;;;0.80;63.43
70072;BME280;57434;42.794;23.302;2022-10-19T02:28:12;95953.13;;;0.21;64.43
70072;BME280;57434;42.794;23.302;2022-10-19T02:30:39;96075.06;;;1.40;63.84
70072;BME280;57434;42.794;23.302;2022-10-19T02:33:06;95983.91;;;0.43;63.67
70072;BME280;57434;42.794;23.302;2022-10-19T02:35:33;96201.63;;;1.98;63.42
70072;BME280;57434;42.794;23.302;2022-10-19T02:38:01;96190.66;;;1.71;64.27
70072;BME280;57434;42.794;23.302;2022-10-19T02:40:33;96185.72;;;1.59;64.04
70072;BME280;57434;42.794;23.302;2022-10-19T02:43:09;96175.31;;;1.67;64.29
70072;BME280;57434;42.794;23.302;2022-10-19T02:45:43;95773.19;;;-1.21;63.75
70072;BME280;57434;42.794;23.302;2022-10-19T02:48:18;96125.19;;;1.42;64.46
70072;BME280;57434;42.794;23.302;2022-10-19T02:50:47;96097.88;;;0.70;64.91
70072;BME280;57434;42.794;23.302;2022-10-19T02:53:15;96123.53;;;1.21;65.18
70072;BME280;57434;42.794;23.302;2022-10-19T02:55:42;96166.59;;;1.45;65.29
70072;BME280;57434;42.794;23.302;2022-10-19T02:58:10;96173.59;;;1.26;65.91
70072;BME280;57434;42.794;23.302;2022-10-19T03:00:37;96172.25;;;1.11;65.81
70072;BME280;57434;42.794;23.302;2022-10-19T03:03:03;96211.13;;;0.97;66.16
70072;BME280;57434;42.794;23.302;2022-10-19T03:05:30;96019.28;;;-0.03;65.86
70072;BME280;57434;42.794;23.302;2022-10-19T03:07:57;95955.75;;;-0.26;65.81
70072;BME280;57434;42.794;23.302;2022-10-19T03:10:24;96032.31;;;-0.07;66.60
70072;BME280;57434;42.794;23.302;2022-10-19T03:12:51;96038.28;;;-0.12;67.01
70072;BME280;57434;42.794;23.302;2022-10-19T03:15:18;96205.97;;;1.26;65.99
70072;BME280;57434;42.794;23.302;2022-10-19T03:17:46;96207.72;;;1.43;65.42
70072;BME280;57434;42.794;23.302;2022-10-19T03:20:13;96012.56;;;-0.02;65.91
70072;BME280;57434;42.794;23.302;2022-10-19T03:22:39;96102.97;;;0.98;65.62
70072;BME280;57434;42.794;23.302;2022-10-19T03:25:07;96196.59;;;1.20;66.29
70072;BME280;57434;42.794;23.302;2022-10-19T03:27:34;96056.19;;;0.07;67.16
70072;BME280;57434;42.794;23.302;2022-10-19T03:30:02;96158.41;;;0.88;67.60
70072;BME280;57434;42.794;23.302;2022-10-19T03:32:29;95955.56;;;-0.42;66.70
70072;BME280;57434;42.794;23.302;2022-10-19T03:34:56;96180.09;;;1.16;66.17
70072;BME280;57434;42.794;23.302;2022-10-19T03:37:23;95959.06;;;-0.38;66.81
70072;BME280;57434;42.794;23.302;2022-10-19T03:39:50;96014.88;;;0.30;66.02
70072;BME280;57434;42.794;23.302;2022-10-19T03:42:17;95980.47;;;-0.49;67.02
70072;BME280;57434;42.794;23.302;2022-10-19T03:44:44;96145.28;;;0.65;66.71
70072;BME280;57434;42.794;23.302;2022-10-19T03:47:11;96119.94;;;0.43;67.03
70072;BME280;57434;42.794;23.302;2022-10-19T03:49:39;95832.50;;;-1.51;67.71
70072;BME280;57434;42.794;23.302;2022-10-19T03:52:06;96158.16;;;0.48;67.30
70072;BME280;57434;42.794;23.302;2022-10-19T03:54:36;95966.66;;;-0.80;66.99
70072;BME280;57434;42.794;23.302;2022-10-19T03:57:04;96116.97;;;0.61;66.99
70072;BME280;57434;42.794;23.302;2022-10-19T03:59:36;95408.66;;;-4.21;65.22
70072;BME280;57434;42.794;23.302;2022-10-19T04:02:04;95557.00;;;-2.75;65.35
70072;BME280;57434;42.794;23.302;2022-10-19T04:04:41;96007.13;;;-0.73;65.23
70072;BME280;57434;42.794;23.302;2022-10-19T04:07:20;96144.53;;;1.18;65.63
70072;BME280;57434;42.794;23.302;2022-10-19T04:15:42;95960.50;;;-0.26;65.40
70072;BME280;57434;42.794;23.302;2022-10-19T04:18:09;96151.13;;;1.48;64.96
70072;BME280;57434;42.794;23.302;2022-10-19T04:20:39;95957.03;;;-0.04;65.15
70072;BME280;57434;42.794;23.302;2022-10-19T04:23:06;96168.69;;;1.37;64.50
70072;BME280;57434;42.794;23.302;2022-10-19T04:25:34;95682.28;;;-1.75;64.00
70072;BME280;57434;42.794;23.302;2022-10-19T04:28:00;96155.66;;;1.38;64.07
70072;BME280;57434;42.794;23.302;2022-10-19T04:30:27;95888.63;;;-0.43;63.24
70072;BME280;57434;42.794;23.302;2022-10-19T04:32:55;96143.03;;;1.37;62.73
70072;BME280;57434;42.794;23.302;2022-10-19T04:35:21;96081.25;;;0.47;62.96
70072;BME280;57434;42.794;23.302;2022-10-19T04:37:48;95989.19;;;0.07;63.37
70072;BME280;57434;42.794;23.302;2022-10-19T04:40:15;95798.00;;;-1.96;64.44
70072;BME280;57434;42.794;23.302;2022-10-19T04:42:42;96172.03;;;0.98;64.39
70072;BME280;57434;42.794;23.302;2022-10-19T04:45:10;95701.84;;;-2.41;65.63
70072;BME280;57434;42.794;23.302;2022-10-19T04:47:37;96131.34;;;0.15;66.54
70072;BME280;57434;42.794;23.302;2022-10-19T04:50:04;95851.16;;;-1.28;65.53
70072;BME280;57434;42.794;23.302;2022-10-19T04:52:31;95834.00;;;-1.80;66.20
70072;BME280;57434;42.794;23.302;2022-10-19T04:54:59;95913.81;;;-1.43;67.29
70072;BME280;57434;42.794;23.302;2022-10-19T04:57:25;96164.78;;;0.54;66.65
70072;BME280;57434;42.794;23.302;2022-10-19T04:59:53;96086.00;;;0.16;66.79
70072;BME280;57434;42.794;23.302;2022-10-19T05:02:19;96144.16;;;0.62;66.83
70072;BME280;57434;42.794;23.302;2022-10-19T05:04:47;96122.34;;;0.41;66.53
70072;BME280;57434;42.794;23.302;2022-10-19T05:07:14;96126.13;;;0.54;66.67
70072;BME280;57434;42.794;23.302;2022-10-19T05:09:41;96119.22;;;0.09;67.10
70072;BME280;57434;42.794;23.302;2022-10-19T05:12:08;95974.56;;;-0.48;66.93
70072;BME280;57434;42.794;23.302;2022-10-19T05:14:35;95983.88;;;-0.08;66.10
70072;BME280;57434;42.794;23.302;2022-10-19T05:17:07;96156.91;;;1.33;65.53
70072;BME280;57434;42.794;23.302;2022-10-19T05:19:34;96018.41;;;0.31;64.84
70072;BME280;57434;42.794;23.302;2022-10-19T05:22:01;96174.09;;;1.91;63.74
70072;BME280;57434;42.794;23.302;2022-10-19T05:24:27;96061.00;;;1.30;63.18
70072;BME280;57434;42.794;23.302;2022-10-19T05:26:54;96175.59;;;2.16;63.13
70072;BME280;57434;42.794;23.302;2022-10-19T05:29:21;95944.88;;;0.91;63.01
70072;BME280;57434;42.794;23.302;2022-10-19T05:31:48;95981.34;;;1.45;62.91
70072;BME280;57434;42.794;23.302;2022-10-19T05:34:15;95998.28;;;1.04;63.58
70072;BME280;57434;42.794;23.302;2022-10-19T05:36:42;95846.56;;;0.50;63.23
70072;BME280;57434;42.794;23.302;2022-10-19T05:39:14;95907.97;;;1.01;63.03
70072;BME280;57434;42.794;23.302;2022-10-19T05:41:45;95952.06;;;1.28;63.33
70072;BME280;57434;42.794;23.302;2022-10-19T05:44:15;95903.88;;;1.09;63.41
70072;BME280;57434;42.794;23.302;2022-10-19T05:46:44;95626.41;;;-0.64;63.21
70072;BME280;57434;42.794;23.302;2022-10-19T05:49:13;96134.47;;;3.26;62.83
70072;BME280;57434;42.794;23.302;2022-10-19T05:51:41;95810.06;;;1.02;62.32
70072;BME280;57434;42.794;23.302;2022-10-19T05:54:12;95693.13;;;0.53;62.13
70072;BME280;57434;42.794;23.302;2022-10-19T05:56:40;96142.03;;;3.87;61.88
70072;BME280;57434;42.794;23.302;2022-10-19T05:59:10;95784.78;;;1.03;61.70
70072;BME280;57434;42.794;23.302;2022-10-19T06:01:41;96208.81;;;3.96;62.32
70072;BME280;57434;42.794;23.302;2022-10-19T06:04:15;95451.22;;;-1.25;62.51
70072;BME280;57434;42.794;23.302;2022-10-19T06:06:51;95590.78;;;0.08;62.66
70072;BME280;57434;42.794;23.302;2022-10-19T06:09:18;95877.81;;;2.18;62.91
70072;BME280;57434;42.794;23.302;2022-10-19T06:11:46;95759.66;;;1.83;62.73
70072;BME280;57434;42.794;23.302;2022-10-19T06:14:14;96043.00;;;3.55;63.97
70072;BME280;57434;42.794;23.302;2022-10-19T06:16:42;95834.44;;;1.79;64.67
70072;BME280;57434;42.794;23.302;2022-10-19T06:19:09;96169.69;;;4.77;63.67
70072;BME280;57434;42.794;23.302;2022-10-19T06:21:36;96171.22;;;5.20;62.61
70072;BME280;57434;42.794;23.302;2022-10-19T06:24:13;95862.56;;;3.71;61.35
70072;BME280;57434;42.794;23.302;2022-10-19T06:26:53;95580.94;;;1.44;60.47
70072;BME280;57434;42.794;23.302;2022-10-19T06:29:37;95741.06;;;2.16;62.13
70072;BME280;57434;42.794;23.302;2022-10-19T06:32:04;95989.41;;;3.99;62.79
70072;BME280;57434;42.794;23.302;2022-10-19T06:34:31;96068.97;;;5.11;61.29
70072;BME280;57434;42.794;23.302;2022-10-19T06:36:58;96189.63;;;6.02;60.86
70072;BME280;57434;42.794;23.302;2022-10-19T06:39:25;95893.66;;;3.79;61.89
70072;BME280;57434;42.794;23.302;2022-10-19T06:41:52;95894.25;;;3.32;63.42
70072;BME280;57434;42.794;23.302;2022-10-19T06:44:19;96078.28;;;4.79;64.03
70072;BME280;57434;42.794;23.302;2022-10-19T06:46:46;96073.44;;;4.96;61.76
70072;BME280;57434;42.794;23.302;2022-10-19T06:49:13;96045.59;;;5.08;61.36
70072;BME280;57434;42.794;23.302;2022-10-19T06:51:40;96131.69;;;5.97;61.35
70072;BME280;57434;42.794;23.302;2022-10-19T06:54:07;96029.66;;;5.34;60.40
70072;BME280;57434;42.794;23.302;2022-10-19T06:56:34;96147.09;;;6.24;60.80
70072;BME280;57434;42.794;23.302;2022-10-19T06:59:01;96176.50;;;7.34;58.50
70072;BME280;57434;42.794;23.302;2022-10-19T07:01:28;96045.59;;;6.96;56.50
70072;BME280;57434;42.794;23.302;2022-10-19T07:03:55;95948.34;;;7.16;54.97
70072;BME280;57434;42.794;23.302;2022-10-19T07:06:22;96082.63;;;8.31;53.59
70072;BME280;57434;42.794;23.302;2022-10-19T07:08:51;96043.34;;;7.62;54.32
70072;BME280;57434;42.794;23.302;2022-10-19T07:11:20;96130.59;;;8.39;54.09
70072;BME280;57434;42.794;23.302;2022-10-19T07:13:47;96026.44;;;7.83;52.57
70072;BME280;57434;42.794;23.302;2022-10-19T07:16:16;96147.69;;;8.77;51.50
70072;BME280;57434;42.794;23.302;2022-10-19T07:18:48;96131.63;;;7.68;54.85
70072;BME280;57434;42.794;23.302;2022-10-19T07:21:16;96007.13;;;7.31;54.63
70072;BME280;57434;42.794;23.302;2022-10-19T07:23:44;96036.97;;;8.85;51.54
70072;BME280;57434;42.794;23.302;2022-10-19T07:26:20;96121.47;;;9.59;50.21
70072;BME280;57434;42.794;23.302;2022-10-19T07:28:47;96120.19;;;9.93;49.95
70072;BME280;57434;42.794;23.302;2022-10-19T07:31:17;96121.53;;;9.98;48.39
70072;BME280;57434;42.794;23.302;2022-10-19T07:33:46;95942.75;;;8.07;50.67
70072;BME280;57434;42.794;23.302;2022-10-19T07:36:13;95978.44;;;8.73;49.38
70072;BME280;57434;42.794;23.302;2022-10-19T07:38:40;96089.78;;;9.44;50.20
70072;BME280;57434;42.794;23.302;2022-10-19T07:41:12;96076.19;;;9.18;50.65
70072;BME280;57434;42.794;23.302;2022-10-19T07:43:41;96089.41;;;9.27;51.22
70072;BME280;57434;42.794;23.302;2022-10-19T07:46:14;96094.13;;;9.78;49.75
70072;BME280;57434;42.794;23.302;2022-10-19T07:48:42;95953.63;;;8.90;50.57
70072;BME280;57434;42.794;23.302;2022-10-19T07:51:11;95942.13;;;9.83;47.22
70072;BME280;57434;42.794;23.302;2022-10-19T07:53:38;96105.13;;;11.12;46.58
70072;BME280;57434;42.794;23.302;2022-10-19T07:56:11;96082.63;;;11.41;45.51
70072;BME280;57434;42.794;23.302;2022-10-19T07:58:39;96094.94;;;11.99;45.53
70072;BME280;57434;42.794;23.302;2022-10-19T08:01:10;95919.88;;;11.38;44.19
70072;BME280;57434;42.794;23.302;2022-10-19T08:03:37;96042.16;;;12.81;43.40
70072;BME280;57434;42.794;23.302;2022-10-19T08:06:24;96091.19;;;13.26;42.38
70072;BME280;57434;42.794;23.302;2022-10-19T08:08:52;95954.16;;;12.29;43.06
70072;BME280;57434;42.794;23.302;2022-10-19T08:11:24;96054.84;;;13.60;41.36
70072;BME280;57434;42.794;23.302;2022-10-19T08:13:51;95955.75;;;12.93;41.13
70072;BME280;57434;42.794;23.302;2022-10-19T08:19:02;96062.16;;;14.42;39.58
70072;BME280;57434;42.794;23.302;2022-10-19T08:21:30;95926.31;;;13.36;40.16
70072;BME280;57434;42.794;23.302;2022-10-19T08:23:57;95916.78;;;13.82;39.61
70072;BME280;57434;42.794;23.302;2022-10-19T08:26:28;95929.56;;;13.72;39.38
70072;BME280;57434;42.794;23.302;2022-10-19T08:29:03;95903.50;;;14.05;39.04
70072;BME280;57434;42.794;23.302;2022-10-19T08:31:31;96032.53;;;15.36;37.63
70072;BME280;57434;42.794;23.302;2022-10-19T08:33:58;95837.34;;;13.95;37.53
70072;BME280;57434;42.794;23.302;2022-10-19T08:36:25;96039.16;;;14.66;39.00
70072;BME280;57434;42.794;23.302;2022-10-19T08:38:52;95891.69;;;13.95;39.02
70072;BME280;57434;42.794;23.302;2022-10-19T08:50:21;95853.28;;;14.65;37.31
70072;BME280;57434;42.794;23.302;2022-10-19T08:53:13;95949.22;;;14.37;39.67
70072;BME280;57434;42.794;23.302;2022-10-19T09:04:32;95701.91;;;14.11;36.06
70072;BME280;57434;42.794;23.302;2022-10-19T09:07:34;95986.03;;;17.00;34.57
70072;BME280;57434;42.794;23.302;2022-10-19T09:13:02;95978.50;;;18.30;32.80
70072;BME280;57434;42.794;23.302;2022-10-19T09:15:39;95979.16;;;18.17;33.73
70072;BME280;57434;42.794;23.302;2022-10-19T09:18:13;95751.31;;;16.49;32.95
70072;BME280;57434;42.794;23.302;2022-10-19T09:20:47;96009.03;;;18.23;33.27
70072;BME280;57434;42.794;23.302;2022-10-19T09:23:37;95988.38;;;18.66;32.46
70072;BME280;57434;42.794;23.302;2022-10-19T09:26:18;95902.97;;;18.40;33.00
70072;BME280;57434;42.794;23.302;2022-10-19T09:28:53;95978.13;;;18.95;32.07
70072;BME280;57434;42.794;23.302;2022-10-19T09:31:30;95857.84;;;17.80;32.64
70072;BME280;57434;42.794;23.302;2022-10-19T09:34:24;95782.88;;;18.07;32.62
70072;BME280;57434;42.794;23.302;2022-10-19T09:37:14;96004.72;;;19.75;31.59
70072;BME280;57434;42.794;23.302;2022-10-19T09:39:55;95847.41;;;18.25;31.75
70072;BME280;57434;42.794;23.302;2022-10-19T09:42:26;95999.06;;;19.43;32.32
70072;BME280;57434;42.794;23.302;2022-10-19T09:45:01;95797.72;;;18.64;31.57
70072;BME280;57434;42.794;23.302;2022-10-19T09:47:39;95495.34;;;16.90;31.64
70072;BME280;57434;42.794;23.302;2022-10-19T09:52:36;95891.94;;;19.72;30.54
70072;BME280;57434;42.794;23.302;2022-10-19T09:55:20;95352.44;;;16.21;31.09
70072;BME280;57434;42.794;23.302;2022-10-19T09:57:57;95703.06;;;18.56;30.33
70072;BME280;57434;42.794;23.302;2022-10-19T10:00:40;95834.59;;;20.02;30.18
70072;BME280;57434;42.794;23.302;2022-10-19T10:03:29;95941.38;;;20.08;30.60
70072;BME280;57434;42.794;23.302;2022-10-19T10:06:02;95953.66;;;19.90;31.54
70072;BME280;57434;42.794;23.302;2022-10-19T10:08:33;95944.34;;;19.89;31.36
70072;BME280;57434;42.794;23.302;2022-10-19T10:14:03;95932.25;;;20.49;29.58
70072;BME280;57434;42.794;23.302;2022-10-19T10:16:35;95397.91;;;16.93;29.95
70072;BME280;57434;42.794;23.302;2022-10-19T10:19:06;95444.88;;;16.88;29.76
70072;BME280;57434;42.794;23.302;2022-10-19T10:21:49;95948.41;;;20.88;29.77
70072;BME280;57434;42.794;23.302;2022-10-19T10:24:18;95913.38;;;20.80;29.52
70072;BME280;57434;42.794;23.302;2022-10-19T10:26:50;95409.13;;;17.57;28.83
70072;BME280;57434;42.794;23.302;2022-10-19T10:29:24;95767.47;;;19.93;29.03
70072;BME280;57434;42.794;23.302;2022-10-19T10:37:37;95666.59;;;20.22;27.09
70072;BME280;57434;42.794;23.302;2022-10-19T10:40:27;95618.38;;;19.62;28.24
70072;BME280;57434;42.794;23.302;2022-10-19T10:42:56;95884.88;;;21.01;28.20
70072;BME280;57434;42.794;23.302;2022-10-19T10:45:32;95781.75;;;20.27;28.54
70072;BME280;57434;42.794;23.302;2022-10-19T10:50:58;95890.06;;;20.69;28.51
70072;BME280;57434;42.794;23.302;2022-10-19T10:53:36;95864.59;;;20.91;28.46
70072;BME280;57434;42.794;23.302;2022-10-19T10:56:05;95743.44;;;20.36;27.53
70072;BME280;57434;42.794;23.302;2022-10-19T10:58:59;95668.81;;;20.66;27.70
70072;BME280;57434;42.794;23.302;2022-10-19T11:01:39;95855.78;;;22.24;26.64
70072;BME280;57434;42.794;23.302;2022-10-19T11:04:19;95764.41;;;21.16;26.12
70072;BME280;57434;42.794;23.302;2022-10-19T11:06:53;95824.56;;;21.82;26.61
70072;BME280;57434;42.794;23.302;2022-10-19T11:09:35;95853.53;;;21.86;26.72
70072;BME280;57434;42.794;23.302;2022-10-19T11:12:09;95747.75;;;21.71;26.63
70072;BME280;57434;42.794;23.302;2022-10-19T11:14:45;95849.94;;;21.93;26.30
70072;BME280;57434;42.794;23.302;2022-10-19T11:17:25;95567.22;;;20.19;25.71
70072;BME280;57434;42.794;23.302;2022-10-19T11:19:53;95652.00;;;21.19;26.48
70072;BME280;57434;42.794;23.302;2022-10-19T11:22:27;95836.84;;;22.80;25.46
70072;BME280;57434;42.794;23.302;2022-10-19T11:28:15;95654.03;;;20.75;26.34
70072;BME280;57434;42.794;23.302;2022-10-19T11:31:11;95675.72;;;21.42;26.26
70072;BME280;57434;42.794;23.302;2022-10-19T11:36:45;95692.34;;;21.67;25.66
70072;BME280;57434;42.794;23.302;2022-10-19T11:47:26;95789.38;;;23.30;24.91
70072;BME280;57434;42.794;23.302;2022-10-19T11:50:08;95785.00;;;23.06;25.13
70072;BME280;57434;42.794;23.302;2022-10-19T12:07:03;95765.09;;;24.02;24.55
70072;BME280;57434;42.794;23.302;2022-10-19T12:14:53;95588.47;;;22.15;25.17
70072;BME280;57434;42.794;23.302;2022-10-19T12:17:27;95566.06;;;21.30;25.45
70072;BME280;57434;42.794;23.302;2022-10-19T12:20:03;95799.88;;;22.97;25.25
70072;BME280;57434;42.794;23.302;2022-10-19T12:22:33;95779.75;;;23.58;24.94
70072;BME280;57434;42.794;23.302;2022-10-19T12:25:01;95609.59;;;22.50;24.24
70072;BME280;57434;42.794;23.302;2022-10-19T12:27:34;95735.88;;;23.40;24.45
70072;BME280;57434;42.794;23.302;2022-10-19T12:30:06;95767.38;;;23.40;24.46
70072;BME280;57434;42.794;23.302;2022-10-19T12:35:34;95776.78;;;23.33;25.30
70072;BME280;57434;42.794;23.302;2022-10-19T12:40:55;95644.47;;;22.79;24.97
70072;BME280;57434;42.794;23.302;2022-10-19T12:43:56;95665.44;;;22.51;26.02
70072;BME280;57434;42.794;23.302;2022-10-19T12:46:54;95741.72;;;23.65;26.14
70072;BME280;57434;42.794;23.302;2022-10-19T12:51:58;95747.69;;;23.52;25.93
70072;BME280;57434;42.794;23.302;2022-10-19T12:54:31;95515.34;;;21.82;26.21
70072;BME280;57434;42.794;23.302;2022-10-19T12:57:01;95551.72;;;21.97;25.68
70072;BME280;57434;42.794;23.302;2022-10-19T12:59:34;95222.84;;;19.34;26.21
70072;BME280;57434;42.794;23.302;2022-10-19T13:02:24;95291.78;;;19.47;26.55
70072;BME280;57434;42.794;23.302;2022-10-19T13:04:53;95277.13;;;19.79;25.88
70072;BME280;57434;42.794;23.302;2022-10-19T13:07:21;95563.91;;;22.05;25.90
70072;BME280;57434;42.794;23.302;2022-10-19T13:10:02;95205.56;;;19.24;26.32
70072;BME280;57434;42.794;23.302;2022-10-19T13:12:50;95168.28;;;19.07;26.42
70072;BME280;57434;42.794;23.302;2022-10-19T13:18:10;95732.31;;;23.24;25.90
70072;BME280;57434;42.794;23.302;2022-10-19T13:25:34;95735.00;;;23.00;26.57
70072;BME280;57434;42.794;23.302;2022-10-19T13:46:18;95717.25;;;22.33;27.26
70072;BME280;57434;42.794;23.302;2022-10-19T13:52:31;95713.66;;;22.40;26.67
70072;BME280;57434;42.794;23.302;2022-10-19T14:01:24;95707.91;;;22.17;27.06
70072;BME280;57434;42.794;23.302;2022-10-19T14:04:28;95709.06;;;22.29;26.60
70072;BME280;57434;42.794;23.302;2022-10-19T14:07:11;95620.00;;;21.56;26.51
70072;BME280;57434;42.794;23.302;2022-10-19T14:12:28;95706.53;;;22.03;26.98
70072;BME280;57434;42.794;23.302;2022-10-19T14:14:55;95697.22;;;22.02;26.76
70072;BME280;57434;42.794;23.302;2022-10-19T14:17:25;95740.66;;;22.08;26.78
70072;BME280;57434;42.794;23.302;2022-10-19T14:19:54;95718.34;;;21.91;27.58
70072;BME280;57434;42.794;23.302;2022-10-19T14:22:34;95721.75;;;21.82;27.22
70072;BME280;57434;42.794;23.302;2022-10-19T14:27:51;95727.59;;;21.69;28.35
70072;BME280;57434;42.794;23.302;2022-10-19T14:30:27;95581.53;;;20.26;28.94
70072;BME280;57434;42.794;23.302;2022-10-19T14:32:55;95568.41;;;20.52;28.40
70072;BME280;57434;42.794;23.302;2022-10-19T14:35:33;95721.81;;;21.54;28.28
70072;BME280;57434;42.794;23.302;2022-10-19T14:38:04;95750.53;;;21.20;28.73
70072;BME280;57434;42.794;23.302;2022-10-19T14:40:39;95710.38;;;21.54;27.87
70072;BME280;57434;42.794;23.302;2022-10-19T14:43:33;95683.59;;;20.85;28.23
70072;BME280;57434;42.794;23.302;2022-10-19T14:48:38;95721.25;;;20.91;29.04
70072;BME280;57434;42.794;23.302;2022-10-19T14:53:56;95690.91;;;20.23;29.92
70072;BME280;57434;42.794;23.302;2022-10-19T14:56:35;95495.78;;;18.50;30.88
70072;BME280;57434;42.794;23.302;2022-10-19T15:01:54;95587.00;;;18.60;31.70
70072;BME280;57434;42.794;23.302;2022-10-19T15:04:33;95504.69;;;17.49;32.78
70072;BME280;57434;42.794;23.302;2022-10-19T15:07:06;95747.81;;;19.21;32.65
70072;BME280;57434;42.794;23.302;2022-10-19T15:09:46;95643.16;;;17.82;33.69
70072;BME280;57434;42.794;23.302;2022-10-19T15:12:17;95604.91;;;17.70;34.03
70072;BME280;57434;42.794;23.302;2022-10-19T15:14:46;95765.72;;;18.64;33.86
70072;BME280;57434;42.794;23.302;2022-10-19T15:19:52;95740.78;;;18.24;34.77
70072;BME280;57434;42.794;23.302;2022-10-19T15:27:35;95768.22;;;18.03;35.88
70072;BME280;57434;42.794;23.302;2022-10-19T15:30:22;95763.50;;;17.74;36.79
70072;BME280;57434;42.794;23.302;2022-10-19T15:35:33;95753.06;;;17.44;36.91
70072;BME280;57434;42.794;23.302;2022-10-19T15:38:06;95590.13;;;16.03;37.51
70072;BME280;57434;42.794;23.302;2022-10-19T15:40:35;95718.88;;;16.75;37.87
70072;BME280;57434;42.794;23.302;2022-10-19T15:46:19;95675.03;;;16.03;38.89
70072;BME280;57434;42.794;23.302;2022-10-19T15:48:48;95662.31;;;15.90;38.96
70072;BME280;57434;42.794;23.302;2022-10-19T15:53:49;95666.38;;;15.65;39.49
70072;BME280;57434;42.794;23.302;2022-10-19T15:56:16;95813.16;;;16.75;39.43
70072;BME280;57434;42.794;23.302;2022-10-19T15:58:43;95830.28;;;16.53;40.06
70072;BME280;57434;42.794;23.302;2022-10-19T16:01:15;95851.94;;;16.20;40.76
70072;BME280;57434;42.794;23.302;2022-10-19T16:03:44;95832.44;;;16.11;41.26